Time;durP1;ratioP1;P1;durP2;ratioP2;P2;SDS_P1;SDS_P2;PMS_P1;PMS_P2;Temp;Humidity;BMP_temperature;BMP_pressure;BME280_temperature;BME280_humidity;BME280_pressure;Samples;Min_cycle;Max_cycle;Signal;HPM_P1;HPM_P2
2023/10/25 00:01:00;;;;;;;1.63;1.48;;;;;;;;;;5061011;28;20052;-87
2023/10/25 00:03:25;;;;;;;2.25;2.10;;;;;;;;;;5077261;28;20048;-87
2023/10/25 00:05:51;;;;;;;3.58;1.73;;;;;;;;;;5078830;28;20081;-87
2023/10/25 00:08:16;;;;;;;4.57;2.65;;;;;;;;;;5078748;28;20032;-87
2023/10/25 00:10:41;;;;;;;2.20;1.90;;;;;;;;;;5075765;28;20047;-86
2023/10/25 00:13:07;;;;;;;5.20;2.50;;;;;;;;;;5076560;28;20126;-86
2023/10/25 00:15:32;;;;;;;4.22;2.85;;;;;;;;;;5076657;28;20020;-85
2023/10/25 00:17:57;;;;;;;2.90;2.47;;;;;;;;;;5079486;28;20028;-85
2023/10/25 00:20:23;;;;;;;3.45;2.33;;;;;;;;;;5076736;28;20033;-85
2023/10/25 00:22:48;;;;;;;5.70;2.33;;;;;;;;;;5077589;28;20028;-86
2023/10/25 00:25:13;;;;;;;4.68;2.65;;;;;;;;;;5069586;28;20103;-86
2023/10/25 00:27:39;;;;;;;6.13;2.38;;;;;;;;;;5069172;28;20033;-86
2023/10/25 00:30:08;;;;;;;3.08;2.38;;;;;;;;;;5063537;28;20025;-88
2023/10/25 00:32:34;;;;;;;3.10;2.28;;;;;;;;;;5063360;28;20068;-87
2023/10/25 00:34:59;;;;;;;3.50;2.10;;;;;;;;;;5085732;28;20059;-88
2023/10/25 00:37:24;;;;;;;4.18;2.35;;;;;;;;;;5071544;28;20056;-87
2023/10/25 00:39:49;;;;;;;2.67;2.13;;;;;;;;;;5067387;28;20483;-87
2023/10/25 00:42:15;;;;;;;2.53;2.03;;;;;;;;;;5043465;28;20032;-88
2023/10/25 00:44:40;;;;;;;2.80;2.10;;;;;;;;;;5073469;28;20043;-87
2023/10/25 00:47:21;;;;;;;3.20;2.20;;;;;;;;;;5048502;28;20028;-87
2023/10/25 00:49:47;;;;;;;2.70;2.45;;;;;;;;;;5060984;28;20381;-88
2023/10/25 00:52:12;;;;;;;2.50;1.95;;;;;;;;;;5076599;28;20577;-87
2023/10/25 00:54:37;;;;;;;3.60;1.98;;;;;;;;;;5051568;28;20025;-87
2023/10/25 00:57:03;;;;;;;2.05;1.85;;;;;;;;;;5073732;28;20398;-87
2023/10/25 00:59:40;;;;;;;2.38;1.98;;;;;;;;;;5053488;28;20219;-86
2023/10/25 01:02:07;;;;;;;3.28;2.22;;;;;;;;;;5043186;28;20025;-86
2023/10/25 01:04:36;;;;;;;3.45;2.10;;;;;;;;;;5066534;28;20036;-86
2023/10/25 01:07:22;;;;;;;7.50;1.88;;;;;;;;;;5065432;28;20401;-87
2023/10/25 01:09:47;;;;;;;1.92;1.60;;;;;;;;;;5057650;28;20459;-87
2023/10/25 01:12:13;;;;;;;2.10;1.67;;;;;;;;;;5048691;28;20041;-87
2023/10/25 01:14:38;;;;;;;2.00;1.80;;;;;;;;;;5066617;28;20025;-87
2023/10/25 01:17:04;;;;;;;3.88;2.30;;;;;;;;;;5061302;28;20433;-87
2023/10/25 01:19:29;;;;;;;3.83;1.98;;;;;;;;;;5049300;28;20031;-86
2023/10/25 01:21:57;;;;;;;10.32;2.30;;;;;;;;;;5053172;28;20411;-87
2023/10/25 01:24:25;;;;;;;2.70;1.90;;;;;;;;;;5064528;28;20057;-86
2023/10/25 01:26:50;;;;;;;2.35;2.03;;;;;;;;;;5070202;28;20038;-86
2023/10/25 01:29:15;;;;;;;2.47;2.17;;;;;;;;;;5069875;28;20021;-86
2023/10/25 01:31:41;;;;;;;5.50;2.70;;;;;;;;;;5072962;28;20202;-86
2023/10/25 01:34:06;;;;;;;2.25;2.05;;;;;;;;;;5074629;28;20036;-86
2023/10/25 01:36:31;;;;;;;5.03;2.20;;;;;;;;;;5065426;28;20029;-87
2023/10/25 01:38:57;;;;;;;2.50;2.25;;;;;;;;;;5073198;28;20021;-88
2023/10/25 01:41:22;;;;;;;2.22;2.00;;;;;;;;;;5075451;28;20035;-87
2023/10/25 01:43:47;;;;;;;2.95;2.10;;;;;;;;;;5057481;28;20044;-86
2023/10/25 01:46:13;;;;;;;2.28;2.08;;;;;;;;;;5066640;28;20025;-88
2023/10/25 01:48:38;;;;;;;1.83;1.67;;;;;;;;;;5072687;28;20524;-86
2023/10/25 01:51:06;;;;;;;2.58;1.90;;;;;;;;;;5044888;28;20063;-86
2023/10/25 01:53:33;;;;;;;4.45;2.40;;;;;;;;;;5057231;28;20496;-87
2023/10/25 01:55:58;;;;;;;2.78;2.10;;;;;;;;;;5064599;28;20021;-87
2023/10/25 01:58:23;;;;;;;2.33;2.13;;;;;;;;;;5057675;28;20039;-87
2023/10/25 02:00:49;;;;;;;2.35;2.13;;;;;;;;;;5059361;28;20032;-86
2023/10/25 02:03:14;;;;;;;3.78;2.03;;;;;;;;;;5070252;28;20029;-87
2023/10/25 02:05:40;;;;;;;2.30;1.88;;;;;;;;;;5065079;28;20505;-87
2023/10/25 02:08:32;;;;;;;1.92;1.73;;;;;;;;;;5043713;28;20024;-87
2023/10/25 02:10:58;;;;;;;2.05;1.80;;;;;;;;;;5066375;28;20012;-86
2023/10/25 02:13:23;;;;;;;2.00;1.77;;;;;;;;;;5075749;28;20032;-88
2023/10/25 02:15:48;;;;;;;2.28;1.88;;;;;;;;;;5043726;28;20024;-87
2023/10/25 02:18:14;;;;;;;2.38;1.90;;;;;;;;;;5044853;28;20036;-86
2023/10/25 02:20:39;;;;;;;2.00;1.80;;;;;;;;;;5067549;28;20048;-86
2023/10/25 02:23:05;;;;;;;1.70;1.58;;;;;;;;;;5068736;28;20043;-87
2023/10/25 02:25:30;;;;;;;2.03;1.80;;;;;;;;;;5041832;28;20432;-86
2023/10/25 02:27:55;;;;;;;2.25;1.70;;;;;;;;;;5070219;28;20032;-88
2023/10/25 02:30:21;;;;;;;2.22;1.98;;;;;;;;;;5063492;28;20079;-86
2023/10/25 02:32:46;;;;;;;1.63;1.52;;;;;;;;;;5080692;28;20033;-87
2023/10/25 02:35:12;;;;;;;2.25;1.90;;;;;;;;;;5057481;28;20033;-86
2023/10/25 02:37:38;;;;;;;2.08;1.65;;;;;;;;;;5041526;28;20028;-88
2023/10/25 02:40:04;;;;;;;2.33;2.13;;;;;;;;;;5064330;28;20040;-87
2023/10/25 02:42:29;;;;;;;7.22;1.90;;;;;;;;;;5075468;28;20058;-86
2023/10/25 02:44:54;;;;;;;1.80;1.70;;;;;;;;;;5060545;28;20021;-87
2023/10/25 02:47:20;;;;;;;2.42;2.00;;;;;;;;;;5067468;28;20032;-87
2023/10/25 02:49:45;;;;;;;2.83;2.33;;;;;;;;;;5066205;28;20070;-87
2023/10/25 02:52:10;;;;;;;3.95;1.52;;;;;;;;;;5059719;28;20032;-85
2023/10/25 02:54:36;;;;;;;2.53;2.30;;;;;;;;;;5056242;28;20033;-84
2023/10/25 02:57:01;;;;;;;2.88;2.08;;;;;;;;;;5067980;28;20085;-88
2023/10/25 02:59:26;;;;;;;1.73;1.60;;;;;;;;;;5061509;28;20025;-86
2023/10/25 03:01:52;;;;;;;2.20;2.00;;;;;;;;;;5064832;28;20016;-87
2023/10/25 03:04:17;;;;;;;2.60;1.80;;;;;;;;;;5076186;28;20088;-86
2023/10/25 03:06:42;;;;;;;2.20;2.00;;;;;;;;;;5043543;28;20020;-86
2023/10/25 03:09:09;;;;;;;2.05;1.60;;;;;;;;;;5073440;28;20021;-86
2023/10/25 03:11:35;;;;;;;9.90;2.05;;;;;;;;;;5061343;28;20096;-85
2023/10/25 03:14:00;;;;;;;3.05;2.30;;;;;;;;;;5065763;28;20051;-86
2023/10/25 03:16:25;;;;;;;2.50;2.03;;;;;;;;;;5069140;28;20060;-85
2023/10/25 03:18:51;;;;;;;7.85;2.40;;;;;;;;;;5056764;28;20092;-87
2023/10/25 03:21:16;;;;;;;3.28;2.40;;;;;;;;;;5045931;28;20424;-86
2023/10/25 03:23:41;;;;;;;3.30;2.22;;;;;;;;;;5071220;28;20035;-86
2023/10/25 03:26:07;;;;;;;3.55;2.22;;;;;;;;;;5062093;28;20024;-88
2023/10/25 03:28:34;;;;;;;2.97;2.17;;;;;;;;;;5061123;28;20037;-88
2023/10/25 03:31:09;;;;;;;3.67;2.90;;;;;;;;;;5074232;28;20047;-87
2023/10/25 03:33:34;;;;;;;3.42;2.08;;;;;;;;;;5067623;28;20128;-86
2023/10/25 03:36:00;;;;;;;4.07;2.40;;;;;;;;;;5070886;28;20078;-85
2023/10/25 03:38:26;;;;;;;2.80;2.40;;;;;;;;;;5053269;28;20037;-88
2023/10/25 03:41:05;;;;;;;3.55;2.80;;;;;;;;;;5068756;28;20100;-88
2023/10/25 03:43:32;;;;;;;4.15;2.88;;;;;;;;;;5066642;28;20556;-88
2023/10/25 03:46:02;;;;;;;2.88;2.30;;;;;;;;;;5067185;28;20020;-86
2023/10/25 03:48:27;;;;;;;3.15;2.83;;;;;;;;;;5049427;28;20238;-87
2023/10/25 03:50:53;;;;;;;8.07;4.10;;;;;;;;;;5063143;28;20131;-86
2023/10/25 03:53:18;;;;;;;3.72;2.97;;;;;;;;;;5066024;28;20044;-86
2023/10/25 03:55:52;;;;;;;4.20;3.17;;;;;;;;;;5077390;28;20028;-85
2023/10/25 03:58:17;;;;;;;5.53;3.85;;;;;;;;;;5059167;28;20035;-86
2023/10/25 04:00:43;;;;;;;4.60;3.40;;;;;;;;;;5041285;28;20025;-87
2023/10/25 04:03:08;;;;;;;6.30;3.83;;;;;;;;;;5071449;28;20020;-87
2023/10/25 04:05:33;;;;;;;4.97;3.40;;;;;;;;;;5071040;28;20039;-86
2023/10/25 04:07:58;;;;;;;4.45;3.05;;;;;;;;;;5077431;28;20041;-88
2023/10/25 04:10:24;;;;;;;5.07;3.55;;;;;;;;;;5065629;28;20395;-88
2023/10/25 04:12:49;;;;;;;5.85;3.67;;;;;;;;;;5076119;28;20029;-85
2023/10/25 04:15:14;;;;;;;5.53;3.92;;;;;;;;;;5068884;28;20107;-88
2023/10/25 04:17:40;;;;;;;3.30;2.75;;;;;;;;;;5061390;28;20151;-87
2023/10/25 04:20:06;;;;;;;3.70;2.78;;;;;;;;;;5049099;28;20048;-88
2023/10/25 04:22:31;;;;;;;4.75;3.60;;;;;;;;;;5068811;28;20043;-87
2023/10/25 04:24:57;;;;;;;4.45;2.88;;;;;;;;;;5062424;28;20020;-86
2023/10/25 04:27:22;;;;;;;4.38;3.58;;;;;;;;;;5068682;28;20170;-87
2023/10/25 04:29:48;;;;;;;4.07;3.30;;;;;;;;;;5049021;28;20123;-88
2023/10/25 04:32:13;;;;;;;5.00;3.03;;;;;;;;;;5072481;28;20025;-87
2023/10/25 04:34:38;;;;;;;4.97;3.40;;;;;;;;;;5040708;28;20052;-88
2023/10/25 04:37:04;;;;;;;5.25;2.75;;;;;;;;;;5057919;28;20420;-87
2023/10/25 04:39:29;;;;;;;3.40;3.10;;;;;;;;;;5062213;28;20119;-86
2023/10/25 04:41:54;;;;;;;3.75;3.28;;;;;;;;;;5063931;28;20017;-87
2023/10/25 04:44:20;;;;;;;3.75;3.05;;;;;;;;;;5061468;28;20029;-86
2023/10/25 04:46:45;;;;;;;3.45;3.05;;;;;;;;;;5044154;28;20040;-87
2023/10/25 04:49:11;;;;;;;3.33;2.67;;;;;;;;;;5067765;28;20055;-88
2023/10/25 04:51:36;;;;;;;4.80;3.35;;;;;;;;;;5047055;28;20024;-86
2023/10/25 04:54:01;;;;;;;4.20;3.13;;;;;;;;;;5066925;28;20054;-88
2023/10/25 04:56:27;;;;;;;4.82;3.38;;;;;;;;;;5064056;28;20041;-88
2023/10/25 04:58:52;;;;;;;6.18;3.85;;;;;;;;;;5061970;28;20024;-85
2023/10/25 05:01:17;;;;;;;4.57;3.50;;;;;;;;;;5046115;28;20032;-88
2023/10/25 05:03:44;;;;;;;9.90;4.25;;;;;;;;;;5069610;28;20111;-86
2023/10/25 05:06:10;;;;;;;12.77;5.40;;;;;;;;;;5067149;28;20138;-87
2023/10/25 05:08:36;;;;;;;6.72;4.78;;;;;;;;;;5061229;28;20044;-87
2023/10/25 05:11:05;;;;;;;8.68;4.65;;;;;;;;;;5070953;28;20084;-87
2023/10/25 05:13:32;;;;;;;7.15;4.43;;;;;;;;;;5067860;28;20070;-85
2023/10/25 05:15:57;;;;;;;6.30;4.50;;;;;;;;;;5059477;28;20028;-87
2023/10/25 05:18:23;;;;;;;10.73;4.28;;;;;;;;;;5068165;28;20029;-87
2023/10/25 05:20:59;;;;;;;5.93;4.00;;;;;;;;;;5069642;28;20032;-85
2023/10/25 05:23:32;;;;;;;5.10;3.78;;;;;;;;;;5062597;28;20033;-88
2023/10/25 05:26:07;;;;;;;6.13;3.75;;;;;;;;;;5081603;28;20035;-86
2023/10/25 05:28:33;;;;;;;4.90;3.20;;;;;;;;;;5075943;28;20092;-87
2023/10/25 05:31:03;;;;;;;5.90;3.15;;;;;;;;;;5065433;28;20041;-85
2023/10/25 05:33:31;;;;;;;3.90;2.92;;;;;;;;;;5091612;28;20019;-88
2023/10/25 05:35:57;;;;;;;4.25;3.33;;;;;;;;;;5073831;28;20035;-87
2023/10/25 05:38:23;;;;;;;3.97;3.28;;;;;;;;;;5048386;28;20020;-86
2023/10/25 05:40:51;;;;;;;5.10;3.28;;;;;;;;;;5040524;28;20034;-88
2023/10/25 05:43:20;;;;;;;4.65;3.08;;;;;;;;;;5063564;28;20039;-87
2023/10/25 05:45:45;;;;;;;5.22;3.60;;;;;;;;;;5071785;28;20021;-87
2023/10/25 05:48:15;;;;;;;4.07;3.05;;;;;;;;;;5046871;28;20020;-86
2023/10/25 05:50:44;;;;;;;3.78;2.53;;;;;;;;;;5075267;28;20028;-87
2023/10/25 05:53:16;;;;;;;4.95;3.15;;;;;;;;;;5072179;28;20033;-88
2023/10/25 05:55:41;;;;;;;5.22;3.20;;;;;;;;;;5040581;28;20037;-86
2023/10/25 05:58:07;;;;;;;4.18;3.13;;;;;;;;;;5055766;28;20032;-87
2023/10/25 06:00:34;;;;;;;3.50;3.03;;;;;;;;;;5072275;28;20032;-88
2023/10/25 06:03:01;;;;;;;3.22;2.45;;;;;;;;;;5078935;28;20371;-87
2023/10/25 06:05:30;;;;;;;6.22;2.00;;;;;;;;;;5062352;28;20028;-86
2023/10/25 06:07:56;;;;;;;4.63;2.60;;;;;;;;;;5050767;28;20159;-86
2023/10/25 06:10:21;;;;;;;3.08;2.15;;;;;;;;;;5058913;28;20076;-86
2023/10/25 06:12:47;;;;;;;2.63;2.40;;;;;;;;;;5064457;28;20043;-86
2023/10/25 06:15:12;;;;;;;4.18;2.58;;;;;;;;;;5065719;28;20507;-86
2023/10/25 06:17:38;;;;;;;3.60;2.28;;;;;;;;;;5065863;28;20029;-87
2023/10/25 06:20:04;;;;;;;2.55;2.25;;;;;;;;;;5072622;28;20056;-84
2023/10/25 06:22:29;;;;;;;3.47;2.70;;;;;;;;;;5073065;28;20020;-88
2023/10/25 06:24:55;;;;;;;2.90;2.53;;;;;;;;;;5066591;28;20043;-87
2023/10/25 06:27:20;;;;;;;2.45;1.92;;;;;;;;;;5064500;28;20382;-88
2023/10/25 06:29:45;;;;;;;3.22;2.60;;;;;;;;;;5085671;28;20024;-89
2023/10/25 06:32:11;;;;;;;6.70;2.08;;;;;;;;;;5081741;28;20060;-86
2023/10/25 06:34:36;;;;;;;3.22;2.35;;;;;;;;;;5063738;28;20036;-88
2023/10/25 06:37:02;;;;;;;3.28;2.58;;;;;;;;;;5066756;28;20016;-87
2023/10/25 06:39:27;;;;;;;2.45;2.13;;;;;;;;;;5058185;28;20020;-88
2023/10/25 06:41:53;;;;;;;3.28;2.42;;;;;;;;;;5073758;28;20028;-88
2023/10/25 06:44:19;;;;;;;2.88;2.58;;;;;;;;;;5058213;28;20103;-88
2023/10/25 06:46:44;;;;;;;2.95;2.22;;;;;;;;;;5055901;28;20158;-86
2023/10/25 06:49:10;;;;;;;3.05;2.47;;;;;;;;;;5071496;28;20381;-87
2023/10/25 06:51:35;;;;;;;8.23;2.65;;;;;;;;;;5067500;28;20462;-88
2023/10/25 06:54:01;;;;;;;2.40;2.20;;;;;;;;;;5063506;28;20021;-89
2023/10/25 06:56:29;;;;;;;4.20;2.70;;;;;;;;;;5063219;28;20025;-86
2023/10/25 06:58:54;;;;;;;3.67;2.60;;;;;;;;;;5061350;28;20021;-86
2023/10/25 07:01:23;;;;;;;2.50;2.30;;;;;;;;;;5075210;28;20047;-88
2023/10/25 07:03:49;;;;;;;3.83;2.70;;;;;;;;;;5069298;28;20029;-87
2023/10/25 07:06:16;;;;;;;4.18;2.55;;;;;;;;;;5057507;28;20569;-86
2023/10/25 07:08:41;;;;;;;4.35;2.50;;;;;;;;;;5065097;28;20029;-86
2023/10/25 07:11:07;;;;;;;2.75;2.15;;;;;;;;;;5075241;28;20021;-87
2023/10/25 07:13:32;;;;;;;3.45;2.40;;;;;;;;;;5071679;28;20036;-88
2023/10/25 07:15:58;;;;;;;2.88;2.40;;;;;;;;;;5091110;28;20029;-89
2023/10/25 07:18:24;;;;;;;2.70;1.85;;;;;;;;;;5074937;28;20035;-88
2023/10/25 07:20:52;;;;;;;3.67;2.20;;;;;;;;;;5065204;28;20028;-87
2023/10/25 07:23:18;;;;;;;2.55;2.08;;;;;;;;;;5073125;28;20052;-87
2023/10/25 07:25:44;;;;;;;3.45;2.60;;;;;;;;;;5073578;28;20089;-88
2023/10/25 07:28:10;;;;;;;3.15;2.50;;;;;;;;;;5077922;28;20020;-87
2023/10/25 07:30:36;;;;;;;3.30;2.55;;;;;;;;;;5064094;28;20048;-88
2023/10/25 07:33:01;;;;;;;2.90;2.58;;;;;;;;;;5050174;28;20025;-87
2023/10/25 07:35:26;;;;;;;2.25;2.05;;;;;;;;;;5073446;28;20478;-87
2023/10/25 07:37:52;;;;;;;2.25;2.05;;;;;;;;;;5039519;28;20127;-88
2023/10/25 07:40:18;;;;;;;4.78;2.05;;;;;;;;;;5070738;28;20036;-86
2023/10/25 07:42:43;;;;;;;2.42;1.95;;;;;;;;;;5079296;28;20086;-87
2023/10/25 07:45:09;;;;;;;2.28;1.58;;;;;;;;;;5074674;28;20041;-87
2023/10/25 07:47:34;;;;;;;3.83;1.92;;;;;;;;;;5052061;28;20029;-85
2023/10/25 07:50:00;;;;;;;2.47;1.70;;;;;;;;;;5073301;28;20032;-86
2023/10/25 07:52:27;;;;;;;3.65;2.10;;;;;;;;;;5071342;28;20035;-87
2023/10/25 07:54:53;;;;;;;2.53;1.65;;;;;;;;;;5085450;28;20009;-86
2023/10/25 07:57:19;;;;;;;1.63;1.52;;;;;;;;;;5099318;28;20074;-86
2023/10/25 07:59:47;;;;;;;2.30;1.67;;;;;;;;;;5069690;28;20621;-86
2023/10/25 08:02:15;;;;;;;1.92;1.65;;;;;;;;;;5076138;28;20058;-85
2023/10/25 08:04:44;;;;;;;2.40;1.80;;;;;;;;;;5078019;28;20020;-88
2023/10/25 08:07:10;;;;;;;2.78;2.33;;;;;;;;;;5088770;28;20015;-87
2023/10/25 08:09:36;;;;;;;2.40;1.92;;;;;;;;;;5070882;28;20084;-88
2023/10/25 08:12:01;;;;;;;7.53;2.38;;;;;;;;;;5069445;28;20032;-86
2023/10/25 08:14:27;;;;;;;3.03;1.90;;;;;;;;;;5071672;28;20479;-87
2023/10/25 08:16:52;;;;;;;2.20;1.92;;;;;;;;;;5060225;28;20024;-87
2023/10/25 08:19:19;;;;;;;4.35;2.10;;;;;;;;;;5052767;28;20040;-86
2023/10/25 08:21:45;;;;;;;3.63;2.38;;;;;;;;;;5076814;28;20029;-87
2023/10/25 08:24:13;;;;;;;6.63;2.10;;;;;;;;;;5047632;28;20024;-88
2023/10/25 08:26:39;;;;;;;2.80;2.40;;;;;;;;;;5051889;28;20546;-88
2023/10/25 08:29:10;;;;;;;3.83;2.28;;;;;;;;;;5066267;28;20074;-88
2023/10/25 08:31:35;;;;;;;4.20;2.05;;;;;;;;;;5075195;28;20501;-88
2023/10/25 08:34:01;;;;;;;3.47;2.05;;;;;;;;;;5065910;28;20044;-88
2023/10/25 08:36:30;;;;;;;2.72;2.20;;;;;;;;;;5044978;28;20371;-86
2023/10/25 08:38:56;;;;;;;2.78;2.08;;;;;;;;;;5062662;28;20020;-87
2023/10/25 08:41:25;;;;;;;2.20;2.00;;;;;;;;;;5048058;28;20039;-89
2023/10/25 08:43:52;;;;;;;2.13;2.03;;;;;;;;;;5058342;28;20031;-87
2023/10/25 08:46:19;;;;;;;1.75;1.50;;;;;;;;;;5077397;28;20028;-85
2023/10/25 08:48:44;;;;;;;2.25;1.80;;;;;;;;;;5059496;28;20025;-85
2023/10/25 08:51:13;;;;;;;2.08;1.88;;;;;;;;;;5065070;28;20020;-86
2023/10/25 08:53:40;;;;;;;4.18;1.70;;;;;;;;;;5047071;28;20123;-86
2023/10/25 08:56:07;;;;;;;1.73;1.60;;;;;;;;;;5061503;28;20020;-87
2023/10/25 08:58:32;;;;;;;2.00;1.40;;;;;;;;;;5071059;28;20021;-86
2023/10/25 09:00:58;;;;;;;2.08;1.75;;;;;;;;;;5082112;28;20031;-86
2023/10/25 09:03:32;;;;;;;2.10;1.80;;;;;;;;;;5084593;28;20394;-89
2023/10/25 09:06:03;;;;;;;1.77;1.63;;;;;;;;;;5079683;28;20058;-87
2023/10/25 09:08:28;;;;;;;1.90;1.40;;;;;;;;;;5081413;28;20050;-88
2023/10/25 09:10:55;;;;;;;1.70;1.60;;;;;;;;;;5058087;28;20008;-87
2023/10/25 09:13:20;;;;;;;3.25;1.77;;;;;;;;;;5062751;28;20367;-89
2023/10/25 09:15:46;;;;;;;2.70;1.80;;;;;;;;;;5061156;28;20524;-88
2023/10/25 09:18:11;;;;;;;2.58;1.83;;;;;;;;;;5068785;28;20052;-88
2023/10/25 09:20:36;;;;;;;1.58;1.15;;;;;;;;;;5081379;28;20024;-88
2023/10/25 09:23:10;;;;;;;3.17;1.83;;;;;;;;;;5083943;28;20076;-87
2023/10/25 09:25:37;;;;;;;1.83;1.48;;;;;;;;;;5078061;28;20036;-88
2023/10/25 09:28:16;;;;;;;5.30;2.10;;;;;;;;;;5059439;28;20056;-87
2023/10/25 09:30:52;;;;;;;1.67;1.58;;;;;;;;;;5041561;28;20021;-88
2023/10/25 09:33:18;;;;;;;2.22;1.67;;;;;;;;;;5044488;28;20041;-88
2023/10/25 09:35:43;;;;;;;3.30;1.90;;;;;;;;;;5069362;28;20077;-88
2023/10/25 09:38:09;;;;;;;2.58;1.80;;;;;;;;;;5054932;28;20373;-88
2023/10/25 09:40:38;;;;;;;2.72;2.25;;;;;;;;;;5054867;28;20032;-88
2023/10/25 09:43:13;;;;;;;2.17;1.58;;;;;;;;;;5047123;28;20035;-87
2023/10/25 09:45:39;;;;;;;2.22;1.80;;;;;;;;;;5059704;28;20051;-88
2023/10/25 09:48:11;;;;;;;1.65;1.55;;;;;;;;;;5045199;28;20029;-88
2023/10/25 09:50:41;;;;;;;1.48;1.38;;;;;;;;;;5057914;28;20046;-88
2023/10/25 09:53:30;;;;;;;2.05;1.50;;;;;;;;;;5043011;28;20114;-88
2023/10/25 09:56:01;;;;;;;1.90;1.48;;;;;;;;;;5057179;28;20024;-87
2023/10/25 09:58:36;;;;;;;1.70;1.60;;;;;;;;;;5087335;28;20015;-87
2023/10/25 10:01:16;;;;;;;;;;;;;;;;;;;;;
2023/10/25 10:04:07;;;;;;;2.85;1.90;;;;;;;;;;5077500;28;20080;-89
2023/10/25 10:06:51;;;;;;;1.63;1.53;;;;;;;;;;5047810;28;20031;-89
2023/10/25 10:09:48;;;;;;;2.67;1.60;;;;;;;;;;5068026;28;20040;-86
2023/10/25 10:19:08;;;;;;;3.72;1.70;;;;;;;;;;5079606;28;20031;-88
2023/10/25 10:22:20;;;;;;;2.78;1.80;;;;;;;;;;5050614;28;20165;-87
2023/10/25 10:25:30;;;;;;;4.72;1.85;;;;;;;;;;5037388;28;20041;-87
2023/10/25 10:31:17;;;;;;;1.67;1.55;;;;;;;;;;5056818;28;20423;-89
2023/10/25 10:33:59;;;;;;;2.00;1.50;;;;;;;;;;5073683;28;20031;-87
2023/10/25 10:37:29;;;;;;;;;;;;;;;;;;;;;
2023/10/25 10:40:23;;;;;;;2.00;1.50;;;;;;;;;;5070241;28;20039;-87
2023/10/25 10:43:41;;;;;;;2.22;1.77;;;;;;;;;;5043082;28;19921;-86
2023/10/25 10:46:11;;;;;;;1.98;1.42;;;;;;;;;;5067649;28;20048;-86
2023/10/25 10:48:42;;;;;;;1.85;1.50;;;;;;;;;;5054300;28;20060;-86
2023/10/25 10:51:12;;;;;;;8.40;2.00;;;;;;;;;;5064750;28;20020;-86
2023/10/25 10:53:58;;;;;;;2.65;1.88;;;;;;;;;;5078916;28;20026;-88
2023/10/25 10:56:52;;;;;;;2.83;1.70;;;;;;;;;;5039611;28;20039;-87
2023/10/25 10:59:24;;;;;;;1.85;1.70;;;;;;;;;;5048956;28;20079;-87
2023/10/25 11:01:50;;;;;;;;;;;;;;;;;;5047809;28;20040;-88
2023/10/25 11:04:16;;;;;;;1.30;1.20;;;;;;;;;;5068389;28;20288;-86
2023/10/25 11:06:41;;;;;;;2.08;1.67;;;;;;;;;;5050966;28;20445;-87
2023/10/25 11:09:12;;;;;;;1.55;1.45;;;;;;;;;;5045291;28;20033;-86
2023/10/25 11:11:38;;;;;;;4.80;1.80;;;;;;;;;;5067320;28;20017;-86
2023/10/25 11:14:04;;;;;;;1.80;1.55;;;;;;;;;;5063418;28;20028;-85
2023/10/25 11:16:29;;;;;;;6.90;2.20;;;;;;;;;;5050650;28;20057;-85
2023/10/25 11:19:13;;;;;;;1.65;1.50;;;;;;;;;;5064926;28;20390;-87
2023/10/25 11:21:38;;;;;;;1.40;1.30;;;;;;;;;;5055470;28;20025;-88
2023/10/25 11:24:09;;;;;;;1.88;1.50;;;;;;;;;;5053447;28;20082;-86
2023/10/25 11:26:37;;;;;;;1.95;1.75;;;;;;;;;;5041465;28;20029;-87
2023/10/25 11:29:03;;;;;;;1.42;1.30;;;;;;;;;;5061727;28;20053;-86
2023/10/25 11:31:32;;;;;;;1.48;1.38;;;;;;;;;;5071547;28;20379;-87
2023/10/25 11:33:57;;;;;;;1.67;1.52;;;;;;;;;;5051208;28;20474;-86
2023/10/25 11:36:22;;;;;;;3.08;1.58;;;;;;;;;;5074904;28;20107;-88
2023/10/25 11:38:47;;;;;;;2.15;1.60;;;;;;;;;;5074653;28;20020;-87
2023/10/25 11:41:14;;;;;;;1.65;1.30;;;;;;;;;;5087221;28;20035;-88
2023/10/25 11:43:39;;;;;;;2.47;1.42;;;;;;;;;;5074467;28;20413;-87
2023/10/25 11:46:05;;;;;;;1.65;1.35;;;;;;;;;;5090195;28;20024;-88
2023/10/25 11:48:35;;;;;;;1.95;1.40;;;;;;;;;;5051294;28;20026;-87
2023/10/25 11:51:01;;;;;;;2.17;1.50;;;;;;;;;;5072359;28;20016;-87
2023/10/25 11:53:26;;;;;;;1.40;1.30;;;;;;;;;;5073879;28;20059;-87
2023/10/25 11:55:52;;;;;;;1.50;1.40;;;;;;;;;;5067544;28;20440;-86
2023/10/25 11:58:18;;;;;;;1.80;1.40;;;;;;;;;;5076687;28;20430;-86
2023/10/25 12:00:43;;;;;;;1.52;1.20;;;;;;;;;;5055202;28;20069;-87
2023/10/25 12:03:08;;;;;;;4.63;1.08;;;;;;;;;;5069924;28;20048;-87
2023/10/25 12:05:34;;;;;;;1.55;1.20;;;;;;;;;;5059831;28;20028;-86
2023/10/25 12:07:59;;;;;;;1.70;0.98;;;;;;;;;;5057318;28;20470;-87
2023/10/25 12:10:25;;;;;;;1.10;1.00;;;;;;;;;;5063373;28;20474;-85
2023/10/25 12:12:50;;;;;;;1.10;1.00;;;;;;;;;;5057812;28;20374;-87
2023/10/25 12:15:15;;;;;;;1.05;0.88;;;;;;;;;;5061104;28;20031;-87
2023/10/25 12:17:41;;;;;;;0.82;0.80;;;;;;;;;;5055166;28;20016;-87
2023/10/25 12:20:06;;;;;;;0.73;0.70;;;;;;;;;;5070226;28;20520;-86
2023/10/25 12:22:32;;;;;;;1.40;1.10;;;;;;;;;;5066121;28;20379;-87
2023/10/25 12:24:57;;;;;;;2.13;0.68;;;;;;;;;;5054589;28;20028;-86
2023/10/25 12:27:22;;;;;;;1.02;0.80;;;;;;;;;;5044878;28;20197;-86
2023/10/25 12:29:48;;;;;;;0.70;0.70;;;;;;;;;;5065725;28;20028;-87
2023/10/25 12:32:13;;;;;;;1.02;0.70;;;;;;;;;;5063012;28;20108;-87
2023/10/25 12:34:40;;;;;;;1.80;0.80;;;;;;;;;;5076352;28;20078;-88
2023/10/25 12:37:05;;;;;;;0.70;0.70;;;;;;;;;;5042279;28;20039;-87
2023/10/25 12:39:34;;;;;;;1.65;0.75;;;;;;;;;;5063031;28;20021;-87
2023/10/25 12:41:59;;;;;;;0.63;0.63;;;;;;;;;;5060224;28;20021;-88
2023/10/25 12:44:25;;;;;;;0.22;0.22;;;;;;;;;;5061185;28;20507;-85
2023/10/25 12:46:50;;;;;;;0.40;0.40;;;;;;;;;;5060542;28;20013;-89
2023/10/25 12:49:18;;;;;;;0.60;0.60;;;;;;;;;;5047824;28;20109;-89
2023/10/25 12:51:43;;;;;;;0.20;0.20;;;;;;;;;;5071859;28;20021;-88
2023/10/25 12:54:09;;;;;;;0.80;0.80;;;;;;;;;;5058143;28;20017;-88
2023/10/25 12:56:34;;;;;;;1.65;0.55;;;;;;;;;;5044872;28;20371;-90
2023/10/25 12:59:00;;;;;;;1.05;0.90;;;;;;;;;;5064833;28;20025;-87
2023/10/25 13:01:26;;;;;;;0.50;0.50;;;;;;;;;;5057364;28;20052;-86
2023/10/25 13:03:51;;;;;;;0.60;0.60;;;;;;;;;;5071067;28;20032;-87
2023/10/25 13:06:17;;;;;;;1.02;0.70;;;;;;;;;;5053841;28;20032;-87
2023/10/25 13:08:42;;;;;;;0.90;0.80;;;;;;;;;;5079428;28;20032;-88
2023/10/25 13:11:08;;;;;;;0.43;0.35;;;;;;;;;;5053200;28;20016;-88
2023/10/25 13:13:34;;;;;;;0.50;0.50;;;;;;;;;;5067786;28;20032;-88
2023/10/25 13:15:59;;;;;;;0.82;0.70;;;;;;;;;;5077833;28;20020;-87
2023/10/25 13:18:24;;;;;;;2.10;0.52;;;;;;;;;;5050770;28;20021;-88
2023/10/25 13:20:50;;;;;;;0.85;0.40;;;;;;;;;;5074535;28;20112;-89
2023/10/25 13:23:16;;;;;;;0.40;0.40;;;;;;;;;;5071466;28;20029;-87
2023/10/25 13:25:42;;;;;;;0.73;0.65;;;;;;;;;;5061686;28;20022;-88
2023/10/25 13:28:07;;;;;;;0.60;0.60;;;;;;;;;;5057647;28;20017;-86
2023/10/25 13:30:33;;;;;;;0.25;0.25;;;;;;;;;;5050111;28;20013;-88
2023/10/25 13:32:58;;;;;;;0.75;0.45;;;;;;;;;;5063455;28;20017;-88
2023/10/25 13:35:23;;;;;;;2.15;0.40;;;;;;;;;;5066601;28;20021;-88
2023/10/25 13:37:49;;;;;;;0.47;0.47;;;;;;;;;;5064598;28;20021;-89
2023/10/25 13:40:14;;;;;;;1.02;0.75;;;;;;;;;;5072960;28;20024;-86
2023/10/25 13:42:39;;;;;;;0.43;0.43;;;;;;;;;;5042765;28;20587;-88
2023/10/25 13:45:06;;;;;;;2.17;1.15;;;;;;;;;;5063090;28;20020;-87
2023/10/25 13:47:31;;;;;;;0.40;0.40;;;;;;;;;;5036572;28;20226;-87
2023/10/25 13:49:56;;;;;;;0.85;0.75;;;;;;;;;;5057399;28;20059;-88
2023/10/25 13:52:22;;;;;;;0.38;0.38;;;;;;;;;;5058537;28;20035;-87
2023/10/25 13:54:47;;;;;;;0.50;0.50;;;;;;;;;;5049885;28;20051;-85
2023/10/25 13:57:12;;;;;;;0.35;0.35;;;;;;;;;;5069115;28;20024;-88
2023/10/25 13:59:39;;;;;;;0.45;0.45;;;;;;;;;;5062774;28;20036;-87
2023/10/25 14:02:05;;;;;;;0.30;0.30;;;;;;;;;;5080707;28;20041;-86
2023/10/25 14:04:31;;;;;;;0.95;0.70;;;;;;;;;;5071917;28;20101;-88
2023/10/25 14:06:56;;;;;;;0.45;0.40;;;;;;;;;;5048178;28;20016;-87
2023/10/25 14:09:22;;;;;;;2.08;0.80;;;;;;;;;;5066430;28;20024;-87
2023/10/25 14:11:47;;;;;;;0.85;0.50;;;;;;;;;;5052652;28;20099;-88
2023/10/25 14:14:14;;;;;;;0.50;0.50;;;;;;;;;;5055406;28;20029;-85
2023/10/25 14:16:42;;;;;;;0.93;0.50;;;;;;;;;;5051471;28;20032;-88
2023/10/25 14:19:07;;;;;;;0.32;0.32;;;;;;;;;;5056597;28;20031;-87
2023/10/25 14:21:35;;;;;;;0.30;0.30;;;;;;;;;;5071021;28;20025;-86
2023/10/25 14:24:01;;;;;;;0.68;0.60;;;;;;;;;;5052761;28;20021;-88
2023/10/25 14:26:26;;;;;;;1.20;0.60;;;;;;;;;;5077018;28;20031;-88
2023/10/25 14:28:52;;;;;;;0.30;0.30;;;;;;;;;;5060315;28;20063;-88
2023/10/25 14:31:17;;;;;;;0.40;0.40;;;;;;;;;;5077161;28;20035;-85
2023/10/25 14:33:43;;;;;;;0.60;0.60;;;;;;;;;;5072690;28;20016;-89
2023/10/25 14:36:15;;;;;;;0.68;0.68;;;;;;;;;;5045336;28;20024;-86
2023/10/25 14:38:41;;;;;;;0.52;0.50;;;;;;;;;;5076103;28;20058;-87
2023/10/25 14:41:08;;;;;;;0.57;0.47;;;;;;;;;;5069247;28;20401;-85
2023/10/25 14:43:33;;;;;;;0.65;0.60;;;;;;;;;;5084782;28;20097;-87
2023/10/25 14:45:59;;;;;;;0.55;0.45;;;;;;;;;;5051159;28;20422;-87
2023/10/25 14:48:24;;;;;;;0.47;0.47;;;;;;;;;;5061313;28;20121;-88
2023/10/25 14:50:49;;;;;;;0.50;0.50;;;;;;;;;;5058487;28;20049;-87
2023/10/25 14:53:16;;;;;;;0.65;0.65;;;;;;;;;;5061600;28;20033;-87
2023/10/25 14:55:42;;;;;;;0.98;0.75;;;;;;;;;;5057065;28;20023;-88
2023/10/25 14:58:07;;;;;;;2.47;0.80;;;;;;;;;;5047047;28;20021;-87